createdAt,value
2018-08-17T00:00:19.839Z,96.61
2018-08-17T00:01:19.839Z,96.89
2018-08-17T00:02:19.841Z,96.51
2018-08-17T00:03:19.841Z,96.85
2018-08-17T00:04:19.843Z,96.56
2018-08-17T00:05:19.945Z,97.47
2018-08-17T00:06:19.847Z,97.66
2018-08-17T00:07:19.846Z,97.28
2018-08-17T00:08:19.847Z,97.47
2018-08-17T00:09:19.849Z,97.38
2018-08-17T00:10:19.849Z,97.28
2018-08-17T00:11:19.850Z,97.24
2018-08-17T00:12:19.853Z,97.52
2018-08-17T00:13:19.853Z,97.28
2018-08-17T00:14:19.858Z,97.28
2018-08-17T00:15:19.855Z,96.94
2018-08-17T00:16:19.856Z,97.38
2018-08-17T00:17:19.859Z,97.76
2018-08-17T00:18:19.859Z,97.57
2018-08-17T00:19:19.860Z,97.47
2018-08-17T00:20:19.860Z,97.57
2018-08-17T00:21:19.864Z,97.38
2018-08-17T00:22:19.863Z,97.19
2018-08-17T00:23:19.864Z,97.47
2018-08-17T00:24:19.864Z,97.57
2018-08-17T00:25:19.867Z,97.38
2018-08-17T00:26:19.868Z,97.38
2018-08-17T00:27:19.867Z,97.28
2018-08-17T00:28:19.890Z,97.38
2018-08-17T00:29:19.876Z,97.24
2018-08-17T00:30:19.871Z,97.52
2018-08-17T00:31:19.874Z,98.10
2018-08-17T00:32:19.873Z,97.42
2018-08-17T00:33:19.874Z,97.33
2018-08-17T00:34:19.874Z,98.29
2018-08-17T00:35:19.875Z,98.00
2018-08-17T00:36:19.878Z,97.81
2018-08-17T00:38:19.881Z,98.10
2018-08-17T00:39:19.880Z,97.91
2018-08-17T00:40:19.882Z,97.71
2018-08-17T00:41:19.882Z,98.10
2018-08-17T00:42:19.884Z,97.61
2018-08-17T00:43:19.883Z,98.00
2018-08-17T00:44:19.886Z,97.91
2018-08-17T00:45:19.886Z,98.19
2018-08-17T00:46:19.887Z,98.19
2018-08-17T00:47:19.886Z,98.10
2018-08-17T00:48:19.894Z,98.48
2018-08-17T00:49:19.889Z,98.29
2018-08-17T00:50:19.892Z,98.10
2018-08-17T00:51:19.892Z,98.19
2018-08-17T00:52:19.892Z,99.15
2018-08-17T00:53:19.893Z,98.96
2018-08-17T00:54:19.895Z,98.10
2018-08-17T00:55:19.894Z,98.48
2018-08-17T00:56:19.895Z,98.00
2018-08-17T00:57:19.896Z,98.00
2018-08-17T00:58:19.897Z,97.91
2018-08-17T00:59:19.899Z,98.29
2018-08-17T01:00:19.899Z,98.19
2018-08-17T01:01:19.900Z,97.91
2018-08-17T01:02:19.902Z,98.48
2018-08-17T01:03:19.902Z,99.05
2018-08-17T01:04:19.903Z,98.67
2018-08-17T01:05:19.904Z,98.77
2018-08-17T01:06:19.904Z,98.38
2018-08-17T01:07:19.905Z,98.38
2018-08-17T01:08:19.905Z,98.48
2018-08-17T01:09:19.906Z,98.00
2018-08-17T01:10:19.907Z,97.81
2018-08-17T01:11:19.908Z,98.10
2018-08-17T01:12:19.912Z,98.38
2018-08-17T01:13:19.910Z,98.00
2018-08-17T01:14:19.912Z,98.19
2018-08-17T01:15:19.912Z,98.38
2018-08-17T01:16:19.914Z,98.19
2018-08-17T01:17:19.913Z,98.86
2018-08-17T01:18:19.914Z,98.67
2018-08-17T01:19:19.914Z,98.77
2018-08-17T01:20:19.916Z,98.96
2018-08-17T01:21:19.917Z,98.86
2018-08-17T01:22:19.918Z,98.48
2018-08-17T01:23:19.918Z,98.19
2018-08-17T01:24:19.918Z,98.10
2018-08-17T01:25:19.920Z,98.00
2018-08-17T01:26:19.920Z,98.58
2018-08-17T01:27:19.921Z,99.01
2018-08-17T01:28:19.922Z,98.62
2018-08-17T01:29:19.922Z,99.49
2018-08-17T01:30:19.924Z,98.72
2018-08-17T01:31:19.924Z,99.10
2018-08-17T01:32:19.927Z,99.01
2018-08-17T01:33:19.926Z,98.91
2018-08-17T01:34:19.926Z,98.96
2018-08-17T01:35:19.926Z,98.67
2018-08-17T01:36:19.928Z,99.39
2018-08-17T01:37:19.929Z,99.29
2018-08-17T01:38:19.933Z,99.25
2018-08-17T01:39:19.929Z,99.29
2018-08-17T01:40:19.931Z,99.58
2018-08-17T01:41:19.932Z,99.10
2018-08-17T01:42:19.932Z,99.44
2018-08-17T01:43:19.935Z,99.39
2018-08-17T01:44:19.933Z,99.29
2018-08-17T01:45:19.935Z,99.87
2018-08-17T01:46:19.935Z,99.10
2018-08-17T01:47:19.936Z,99.20
2018-08-17T01:48:19.936Z,98.86
2018-08-17T01:49:19.938Z,99.25
2018-08-17T01:50:19.937Z,98.96
2018-08-17T01:51:19.938Z,99.34
2018-08-17T01:52:19.938Z,99.58
2018-08-17T01:53:19.939Z,98.96
2018-08-17T01:54:19.940Z,99.34
2018-08-17T01:55:19.940Z,98.91
2018-08-17T01:56:19.944Z,98.72
2018-08-17T01:57:19.942Z,99.68
2018-08-17T01:58:19.943Z,99.10
2018-08-17T01:59:19.947Z,98.82
2018-08-17T02:00:19.944Z,99.49
2018-08-17T02:01:19.945Z,99.29
2018-08-17T02:02:19.947Z,99.01
2018-08-17T02:03:19.946Z,99.01
2018-08-17T02:04:19.946Z,99.58
2018-08-17T02:05:19.948Z,99.10
2018-08-17T02:06:19.955Z,99.10
2018-08-17T02:07:19.947Z,99.39
2018-08-17T02:08:19.948Z,99.01
2018-08-17T02:09:19.950Z,99.49
2018-08-17T02:10:19.953Z,99.99
2018-08-17T02:11:19.950Z,99.99
2018-08-17T02:12:19.952Z,99.01
2018-08-17T02:13:19.953Z,99.10
2018-08-17T02:14:19.952Z,99.10
2018-08-17T02:15:19.953Z,99.20
2018-08-17T02:16:19.954Z,98.43
2018-08-17T02:17:19.955Z,98.82
2018-08-17T02:18:19.954Z,98.62
2018-08-17T02:19:19.957Z,98.29
2018-08-17T02:20:19.955Z,98.58
2018-08-17T02:21:19.955Z,97.95
2018-08-17T02:22:19.958Z,98.10
2018-08-17T02:23:19.956Z,98.10
2018-08-17T02:24:20.010Z,97.91
2018-08-17T02:25:19.957Z,98.10
2018-08-17T02:26:19.960Z,97.81
2018-08-17T02:27:19.960Z,98.05
2018-08-17T02:28:19.960Z,98.00
2018-08-17T02:29:19.959Z,97.95
2018-08-17T02:30:19.963Z,97.95
2018-08-17T02:31:19.961Z,98.58
2018-08-17T02:32:19.963Z,98.43
2018-08-17T02:33:19.966Z,98.38
2018-08-17T02:34:19.963Z,98.82
2018-08-17T02:35:19.963Z,98.62
2018-08-17T02:36:19.963Z,98.82
2018-08-17T02:37:19.966Z,99.10
2018-08-17T02:38:19.967Z,99.10
2018-08-17T02:39:19.966Z,99.20
2018-08-17T02:40:19.966Z,99.10
2018-08-17T02:41:19.966Z,98.91
2018-08-17T02:42:19.968Z,98.91
2018-08-17T02:43:19.970Z,99.10
2018-08-17T02:44:19.967Z,99.58
2018-08-17T02:45:19.973Z,99.10
2018-08-17T02:46:19.974Z,99.39
2018-08-17T02:47:19.970Z,99.49
2018-08-17T02:48:19.972Z,99.49
2018-08-17T02:49:19.971Z,99.29
2018-08-17T02:50:19.973Z,99.10
2018-08-17T02:51:19.975Z,99.01
2018-08-17T02:52:19.973Z,99.01
2018-08-17T02:53:19.973Z,99.99
2018-08-17T02:54:19.974Z,99.29
2018-08-17T02:55:19.973Z,99.29
2018-08-17T02:56:19.975Z,99.58
2018-08-17T02:57:19.974Z,99.20
2018-08-17T02:58:19.975Z,99.29
2018-08-17T02:59:19.977Z,99.99
2018-08-17T03:00:19.979Z,99.29
2018-08-17T03:01:19.976Z,99.29
2018-08-17T03:02:19.976Z,99.87
2018-08-17T03:03:19.978Z,99.99
2018-08-17T03:04:19.977Z,99.99
2018-08-17T03:05:19.979Z,99.99
2018-08-17T03:06:19.979Z,99.99
2018-08-17T03:07:19.979Z,99.99
2018-08-17T03:08:19.980Z,99.99
2018-08-17T03:09:19.980Z,99.99
2018-08-17T03:10:19.981Z,99.99
2018-08-17T03:11:19.980Z,99.99
2018-08-17T03:12:19.981Z,99.99
2018-08-17T03:13:19.981Z,99.99
2018-08-17T03:14:19.982Z,99.99
2018-08-17T03:15:19.983Z,99.99
2018-08-17T03:16:19.984Z,99.99
2018-08-17T03:17:19.983Z,99.99
2018-08-17T03:18:19.983Z,99.99
2018-08-17T03:19:19.982Z,99.99
2018-08-17T03:20:19.983Z,99.99
2018-08-17T03:21:19.985Z,99.99
2018-08-17T03:22:19.985Z,99.99
2018-08-17T03:23:19.984Z,99.99
2018-08-17T03:24:19.985Z,99.99
2018-08-17T03:25:19.985Z,99.99
2018-08-17T03:26:19.985Z,99.99
2018-08-17T03:27:19.986Z,99.99
2018-08-17T03:28:19.984Z,99.99
2018-08-17T03:29:19.986Z,99.99
2018-08-17T03:30:19.987Z,99.99
2018-08-17T03:31:19.989Z,99.99
2018-08-17T03:32:19.986Z,99.99
2018-08-17T03:33:19.986Z,99.99
2018-08-17T03:34:19.986Z,99.99
2018-08-17T03:35:19.986Z,99.99
2018-08-17T03:36:19.988Z,99.99
2018-08-17T03:37:20.067Z,99.99
2018-08-17T03:38:19.988Z,99.99
2018-08-17T03:39:19.987Z,99.99
2018-08-17T03:40:19.988Z,99.99
2018-08-17T03:41:19.988Z,99.99
2018-08-17T03:42:19.989Z,99.99
2018-08-17T03:43:19.991Z,99.99
2018-08-17T03:44:19.988Z,99.99
2018-08-17T03:45:19.990Z,99.99
2018-08-17T03:46:19.990Z,99.99
2018-08-17T03:47:19.989Z,99.99
2018-08-17T03:48:19.989Z,99.99
2018-08-17T03:49:19.990Z,99.99
2018-08-17T03:50:19.990Z,99.99
2018-08-17T03:51:19.994Z,99.99
2018-08-17T03:52:19.989Z,99.99
2018-08-17T03:53:19.991Z,99.99
2018-08-17T03:54:19.991Z,99.99
2018-08-17T03:55:19.989Z,99.99
2018-08-17T03:56:19.990Z,99.99
2018-08-17T03:57:19.992Z,99.99
2018-08-17T03:58:19.991Z,99.99
2018-08-17T03:59:19.990Z,99.99
2018-08-17T04:00:19.991Z,99.99
2018-08-17T04:01:19.991Z,99.99
2018-08-17T04:02:19.992Z,99.99
2018-08-17T04:03:19.991Z,99.99
2018-08-17T04:04:19.991Z,99.99
2018-08-17T04:05:19.992Z,99.99
2018-08-17T04:06:19.993Z,99.99
2018-08-17T04:07:19.992Z,99.99
2018-08-17T04:08:19.992Z,99.99
2018-08-17T04:09:19.993Z,99.99
2018-08-17T04:10:19.993Z,99.99
2018-08-17T04:11:19.994Z,99.99
2018-08-17T04:12:19.994Z,99.99
2018-08-17T04:13:19.995Z,99.99
2018-08-17T04:14:19.993Z,99.99
2018-08-17T04:15:19.999Z,99.99
2018-08-17T04:16:19.993Z,99.99
2018-08-17T04:17:19.994Z,99.99
2018-08-17T04:18:19.993Z,99.99
2018-08-17T04:19:19.992Z,99.99
2018-08-17T04:20:19.998Z,99.99
2018-08-17T04:21:19.997Z,99.99
2018-08-17T04:22:19.993Z,99.99
2018-08-17T04:23:19.997Z,99.99
2018-08-17T04:24:19.994Z,99.99
2018-08-17T04:25:19.994Z,99.99
2018-08-17T04:26:19.995Z,99.99
2018-08-17T04:27:19.993Z,99.99
2018-08-17T04:28:19.994Z,99.99
2018-08-17T04:29:19.998Z,99.99
2018-08-17T04:30:20.043Z,99.99
2018-08-17T04:31:19.995Z,99.99
2018-08-17T04:32:19.994Z,99.99
2018-08-17T04:33:19.994Z,99.99
2018-08-17T04:34:19.996Z,99.99
2018-08-17T04:35:20.057Z,99.99
2018-08-17T04:36:19.995Z,99.99
2018-08-17T04:37:19.995Z,99.99
2018-08-17T04:38:19.996Z,99.99
2018-08-17T04:39:19.994Z,99.99
2018-08-17T04:40:19.996Z,99.99
2018-08-17T04:41:19.994Z,99.99
2018-08-17T04:42:19.997Z,99.99
2018-08-17T04:43:19.995Z,99.99
2018-08-17T04:44:19.995Z,99.99
2018-08-17T04:45:19.996Z,99.99
2018-08-17T04:46:19.996Z,99.99
2018-08-17T04:47:19.996Z,99.99
2018-08-17T04:48:19.997Z,99.99
2018-08-17T04:49:20.087Z,99.99
2018-08-17T04:50:19.997Z,99.99
2018-08-17T04:51:19.996Z,99.99
2018-08-17T04:52:19.995Z,99.99
2018-08-17T04:53:19.996Z,99.99
2018-08-17T04:54:19.997Z,99.99
2018-08-17T04:55:19.997Z,99.99
2018-08-17T04:56:19.997Z,99.99
2018-08-17T04:57:19.997Z,99.99
2018-08-17T04:58:19.997Z,99.99
2018-08-17T04:59:19.996Z,99.99
2018-08-17T05:00:19.997Z,99.99
2018-08-17T05:01:19.998Z,99.99
2018-08-17T05:02:19.998Z,99.99
2018-08-17T05:03:20.052Z,99.99
2018-08-17T05:04:19.998Z,99.99
2018-08-17T05:05:19.997Z,99.99
2018-08-17T05:06:19.997Z,99.99
2018-08-17T05:07:19.996Z,99.99
2018-08-17T05:08:19.997Z,99.99
2018-08-17T05:09:20.001Z,99.99
2018-08-17T05:10:19.999Z,99.99
2018-08-17T05:11:19.997Z,99.99
2018-08-17T05:12:19.999Z,99.99
2018-08-17T05:13:19.999Z,99.99
2018-08-17T05:14:19.999Z,99.99
2018-08-17T05:15:19.999Z,99.99
2018-08-17T05:16:19.999Z,99.99
2018-08-17T05:17:19.999Z,99.99
2018-08-17T05:18:19.998Z,99.99
2018-08-17T05:19:19.999Z,99.99
2018-08-17T05:20:20.000Z,99.99
2018-08-17T05:21:20.000Z,99.99
2018-08-17T05:22:20.002Z,99.99
2018-08-17T05:23:20.043Z,99.99
2018-08-17T05:24:20.001Z,99.99
2018-08-17T05:25:20.001Z,99.99
2018-08-17T05:26:20.002Z,99.99
2018-08-17T05:27:20.000Z,99.99
2018-08-17T05:28:20.001Z,99.99
2018-08-17T05:29:20.002Z,99.99
2018-08-17T05:30:20.035Z,99.99
2018-08-17T05:31:20.002Z,99.10
2018-08-17T05:32:20.006Z,99.68
2018-08-17T05:33:20.005Z,99.68
2018-08-17T05:34:20.004Z,99.01
2018-08-17T05:35:20.004Z,99.77
2018-08-17T05:36:20.004Z,98.91
2018-08-17T05:37:20.042Z,99.01
2018-08-17T05:38:20.006Z,98.82
2018-08-17T05:39:20.007Z,99.20
2018-08-17T05:40:20.007Z,98.48
2018-08-17T05:41:20.007Z,98.96
2018-08-17T05:42:20.009Z,98.58
2018-08-17T05:43:20.007Z,98.48
2018-08-17T05:44:20.008Z,98.00
2018-08-17T05:45:20.009Z,97.61
2018-08-17T05:46:20.010Z,97.91
2018-08-17T05:47:20.325Z,97.71
2018-08-17T05:48:20.037Z,97.52
2018-08-17T05:49:20.012Z,97.52
2018-08-17T05:50:20.013Z,97.24
2018-08-17T05:51:20.013Z,96.85
2018-08-17T05:52:20.013Z,97.61
2018-08-17T05:53:20.017Z,97.24
2018-08-17T05:54:20.016Z,97.09
2018-08-17T05:55:20.016Z,96.80
2018-08-17T05:56:20.022Z,96.75
2018-08-17T05:57:20.018Z,96.27
2018-08-17T05:58:20.019Z,96.42
2018-08-17T05:59:20.019Z,96.03
2018-08-17T06:00:20.020Z,95.75
2018-08-17T06:01:20.022Z,96.89
2018-08-17T06:02:20.021Z,96.03
2018-08-17T06:03:20.022Z,96.22
2018-08-17T06:04:20.025Z,95.17
2018-08-17T06:05:20.025Z,96.61
2018-08-17T06:06:20.027Z,95.36
2018-08-17T06:07:20.073Z,96.13
2018-08-17T06:08:20.099Z,96.61
2018-08-17T06:09:20.028Z,95.50
2018-08-17T06:10:20.030Z,95.12
2018-08-17T06:11:20.354Z,95.98
2018-08-17T06:12:20.031Z,96.75
2018-08-17T06:13:20.033Z,96.08
2018-08-17T06:14:20.034Z,95.50
2018-08-17T06:15:20.035Z,95.70
2018-08-17T06:16:20.037Z,94.35
2018-08-17T06:17:20.044Z,94.68
2018-08-17T06:18:20.041Z,95.50
2018-08-17T06:19:20.123Z,95.75
2018-08-17T06:20:20.043Z,93.63
2018-08-17T06:21:20.043Z,93.15
2018-08-17T06:22:20.045Z,93.24
2018-08-17T06:23:20.047Z,92.96
2018-08-17T06:24:20.047Z,94.01
2018-08-17T06:25:20.052Z,93.34
2018-08-17T06:26:20.052Z,92.29
2018-08-17T06:27:20.054Z,93.24
2018-08-17T06:28:20.054Z,93.63
2018-08-17T06:29:20.054Z,93.05
2018-08-17T06:30:20.057Z,92.33
2018-08-17T06:31:20.057Z,91.94
2018-08-17T06:32:20.057Z,91.27
2018-08-17T06:33:20.060Z,91.66
2018-08-17T06:34:20.061Z,91.66
2018-08-17T06:35:20.064Z,91.36
2018-08-17T06:36:20.064Z,90.50
2018-08-17T06:37:20.109Z,91.66
2018-08-17T06:38:20.069Z,91.31
2018-08-17T06:39:20.083Z,91.66
2018-08-17T06:40:20.072Z,90.73
2018-08-17T06:41:20.073Z,90.83
2018-08-17T06:42:20.075Z,90.06
2018-08-17T06:43:20.076Z,89.97
2018-08-17T06:44:20.078Z,90.26
2018-08-17T06:45:20.079Z,91.70
2018-08-17T06:46:20.081Z,93.15
2018-08-17T06:47:20.083Z,89.78
2018-08-17T06:48:20.086Z,89.10
2018-08-17T06:49:20.089Z,88.53
2018-08-17T06:50:20.092Z,89.68
2018-08-17T06:51:20.095Z,88.43
2018-08-17T06:52:20.095Z,85.39
2018-08-17T06:53:20.097Z,85.58
2018-08-17T06:54:20.102Z,85.68
2018-08-17T06:55:20.101Z,85.34
2018-08-17T06:56:20.104Z,84.27
2018-08-17T06:57:20.123Z,81.45
2018-08-17T06:58:20.115Z,78.15
2018-08-17T06:59:20.119Z,74.65
2018-08-17T07:00:20.123Z,70.14
2018-08-17T07:01:20.130Z,68.33
2018-08-17T07:02:20.134Z,66.75
2018-08-17T07:03:20.141Z,65.50
2018-08-17T07:04:20.148Z,64.27
2018-08-17T07:05:20.155Z,62.62
2018-08-17T07:06:20.161Z,61.29
2018-08-17T07:07:20.170Z,61.29
2018-08-17T07:08:20.178Z,61.04
2018-08-17T07:09:20.285Z,62.19
2018-08-17T07:10:20.188Z,61.98
2018-08-17T07:11:20.194Z,62.07
2018-08-17T07:12:20.201Z,60.94
2018-08-17T07:13:20.209Z,61.61
2018-08-17T07:14:20.216Z,61.22
2018-08-17T07:15:20.222Z,62.95
2018-08-17T07:16:20.227Z,62.85
2018-08-17T07:17:20.236Z,61.58
2018-08-17T07:18:20.242Z,61.88
2018-08-17T07:19:20.247Z,62.33
2018-08-17T07:20:20.254Z,61.85
2018-08-17T07:21:20.258Z,61.55
2018-08-17T07:22:20.265Z,62.72
2018-08-17T07:23:20.270Z,63.59
2018-08-17T07:24:20.276Z,62.33
2018-08-17T07:25:20.283Z,62.01
2018-08-17T07:26:20.289Z,61.82
2018-08-17T07:27:20.292Z,61.75
2018-08-17T07:28:20.299Z,63.37
2018-08-17T07:29:20.308Z,62.30
2018-08-17T07:30:20.310Z,63.37
2018-08-17T07:31:20.314Z,63.95
2018-08-17T07:32:20.320Z,65.11
2018-08-17T07:33:20.325Z,65.85
2018-08-17T07:34:20.333Z,64.40
2018-08-17T07:35:20.336Z,64.95
2018-08-17T07:36:20.342Z,65.37
2018-08-17T07:37:20.407Z,66.20
2018-08-17T07:38:20.350Z,69.11
2018-08-17T07:39:20.356Z,69.17
2018-08-17T07:40:20.408Z,67.24
2018-08-17T07:41:20.366Z,67.24
2018-08-17T07:42:20.372Z,67.82
2018-08-17T07:43:20.374Z,69.85
2018-08-17T07:44:20.382Z,71.59
2018-08-17T07:45:20.385Z,72.17
2018-08-17T07:46:20.390Z,71.46
2018-08-17T07:47:20.398Z,71.56
2018-08-17T07:48:20.542Z,69.56
2018-08-17T07:49:20.433Z,69.08
2018-08-17T07:50:20.500Z,69.17
2018-08-17T07:51:20.413Z,68.98
2018-08-17T07:52:20.667Z,69.56
2018-08-17T07:53:20.698Z,69.46
2018-08-17T07:54:20.428Z,70.24
2018-08-17T07:55:20.433Z,70.04
2018-08-17T07:56:20.437Z,70.34
2018-08-17T07:57:20.443Z,70.34
2018-08-17T07:58:20.447Z,72.08
2018-08-17T07:59:20.450Z,71.50
2018-08-17T08:00:20.457Z,69.98
2018-08-17T08:01:20.461Z,69.98
2018-08-17T08:02:20.469Z,68.24
2018-08-17T08:03:20.470Z,67.85
2018-08-17T08:04:20.476Z,67.37
2018-08-17T08:05:20.482Z,67.18
2018-08-17T08:06:20.493Z,66.53
2018-08-17T08:07:20.517Z,66.43
2018-08-17T08:08:20.498Z,65.75
2018-08-17T08:09:20.503Z,64.24
2018-08-17T08:10:20.509Z,64.47
2018-08-17T08:11:20.515Z,65.43
2018-08-17T08:12:20.521Z,65.05
2018-08-17T08:13:20.528Z,63.78
2018-08-17T08:14:20.541Z,63.82
2018-08-17T08:15:20.541Z,63.62
2018-08-17T08:16:20.547Z,62.85
2018-08-17T08:17:20.555Z,61.98
2018-08-17T08:18:20.561Z,64.14
2018-08-17T08:19:20.567Z,64.62
2018-08-17T08:20:20.597Z,60.84
2018-08-17T08:21:20.583Z,59.58
2018-08-17T08:22:20.589Z,60.45
2018-08-17T08:23:20.596Z,59.67
2018-08-17T08:24:20.604Z,58.80
2018-08-17T08:25:20.612Z,57.57
2018-08-17T08:26:20.629Z,56.01
2018-08-17T08:27:20.628Z,55.46
2018-08-17T08:28:20.831Z,56.62
2018-08-17T08:29:20.645Z,56.92
2018-08-17T08:30:20.652Z,57.31
2018-08-17T08:31:21.751Z,56.62
2018-08-17T08:32:20.727Z,57.31
2018-08-17T08:33:20.677Z,57.69
2018-08-17T08:34:20.687Z,57.82
2018-08-17T08:35:20.694Z,56.65
2018-08-17T08:36:20.703Z,55.49
2018-08-17T08:37:20.922Z,56.26
2018-08-17T08:38:20.876Z,55.51
2018-08-17T08:39:20.731Z,54.74
2018-08-17T08:40:20.742Z,53.59
2018-08-17T08:41:20.752Z,54.01
2018-08-17T08:42:20.762Z,51.77
2018-08-17T08:43:20.774Z,50.73
2018-08-17T08:44:20.784Z,50.14
2018-08-17T08:45:20.839Z,49.49
2018-08-17T08:46:20.806Z,49.32
2018-08-17T08:47:21.033Z,49.24
2018-08-17T08:48:21.570Z,49.54
2018-08-17T08:49:20.839Z,51.68
2018-08-17T08:50:20.849Z,52.14
2018-08-17T08:51:21.172Z,51.73
2018-08-17T08:52:21.024Z,52.09
2018-08-17T08:53:20.915Z,54.43
2018-08-17T08:54:20.895Z,56.25
2018-08-17T08:55:20.900Z,56.15
2018-08-17T08:56:20.909Z,54.99
2018-08-17T08:57:20.919Z,55.08
2018-08-17T08:58:21.200Z,55.37
2018-08-17T08:59:21.096Z,54.03
2018-08-17T09:00:20.950Z,53.65
2018-08-17T09:01:20.964Z,51.90
2018-08-17T09:02:20.971Z,50.16
2018-08-17T09:03:20.982Z,48.51
2018-08-17T09:04:21.434Z,49.58
2018-08-17T09:05:21.003Z,47.92
2018-08-17T09:06:21.297Z,48.12
2018-08-17T09:07:21.329Z,49.32
2018-08-17T09:08:21.083Z,53.89
2018-08-17T09:09:21.049Z,51.78
2018-08-17T09:10:21.061Z,50.90
2018-08-17T09:11:21.072Z,50.92
2018-08-17T09:12:21.083Z,51.12
2018-08-17T09:13:21.349Z,49.29
2018-08-17T09:14:21.542Z,47.27
2018-08-17T09:15:21.118Z,46.97
2018-08-17T09:16:24.062Z,47.83
2018-08-17T09:17:21.169Z,48.39
2018-08-17T09:18:21.159Z,48.85
2018-08-17T09:19:21.180Z,49.24
2018-08-17T09:20:21.264Z,48.00
2018-08-17T09:21:21.197Z,47.92
2018-08-17T09:22:21.276Z,47.56
2018-08-17T09:23:21.222Z,47.97
2018-08-17T09:24:21.235Z,45.62
2018-08-17T09:25:21.249Z,48.16
2018-08-17T09:26:21.263Z,46.62
2018-08-17T09:27:21.276Z,45.26
2018-08-17T09:28:21.290Z,44.98
2018-08-17T09:29:21.303Z,45.18
2018-08-17T09:30:21.318Z,43.71
2018-08-17T09:31:21.331Z,43.44
2018-08-17T09:32:21.345Z,42.56
2018-08-17T09:33:21.361Z,42.36
2018-08-17T09:34:21.373Z,42.76
2018-08-17T09:35:21.388Z,43.24
2018-08-17T09:36:21.401Z,43.63
2018-08-17T09:37:21.418Z,41.09
2018-08-17T09:38:21.493Z,42.27
2018-08-17T09:39:21.504Z,43.15
2018-08-17T09:40:21.458Z,43.34
2018-08-17T09:41:21.473Z,44.44
2018-08-17T09:42:21.489Z,42.38
2018-08-17T09:43:21.501Z,42.36
2018-08-17T09:44:21.516Z,43.79
2018-08-17T09:45:21.530Z,44.49
2018-08-17T09:46:21.544Z,44.59
2018-08-17T09:47:21.559Z,46.97
2018-08-17T09:48:21.573Z,45.69
2018-08-17T09:49:21.588Z,46.50
2018-08-17T09:50:21.604Z,44.93
2018-08-17T09:51:21.650Z,44.54
2018-08-17T09:52:21.699Z,45.32
2018-08-17T09:53:21.645Z,43.37
2018-08-17T09:54:21.660Z,40.82
2018-08-17T09:55:21.998Z,40.55
2018-08-17T09:56:21.694Z,40.94
2018-08-17T09:57:21.702Z,40.64
2018-08-17T09:58:22.108Z,41.52
2018-08-17T09:59:21.732Z,42.31
2018-08-17T10:00:21.745Z,42.03
2018-08-17T10:01:21.761Z,39.29
2018-08-17T10:02:21.775Z,38.88
2018-08-17T10:03:21.790Z,38.90
2018-08-17T10:04:21.808Z,40.17
2018-08-17T10:05:21.823Z,38.92
2018-08-17T10:06:21.833Z,37.52
2018-08-17T10:07:21.849Z,39.98
2018-08-17T10:08:21.909Z,39.66
2018-08-17T10:09:21.879Z,38.39
2018-08-17T10:10:21.892Z,39.88
2018-08-17T10:11:21.937Z,40.47
2018-08-17T10:12:21.944Z,39.19
2018-08-17T10:13:22.049Z,41.15
2018-08-17T10:14:22.013Z,39.59
2018-08-17T10:15:21.962Z,40.37
2018-08-17T10:16:21.977Z,40.08
2018-08-17T10:17:21.993Z,42.23
2018-08-17T10:18:22.038Z,40.48
2018-08-17T10:19:22.104Z,41.86
2018-08-17T10:20:22.038Z,39.31
2018-08-17T10:21:22.194Z,39.51
2018-08-17T10:22:22.153Z,39.17
2018-08-17T10:23:22.193Z,41.70
2018-08-17T10:24:22.140Z,39.62
2018-08-17T10:25:22.169Z,39.41
2018-08-17T10:26:22.203Z,39.08
2018-08-17T10:27:22.315Z,39.94
2018-08-17T10:28:22.195Z,39.36
2018-08-17T10:29:22.182Z,39.76
2018-08-17T10:30:22.231Z,40.33
2018-08-17T10:31:22.203Z,40.31
2018-08-17T10:32:22.285Z,40.23
2018-08-17T10:33:22.212Z,40.43
2018-08-17T10:34:22.221Z,40.94
2018-08-17T10:35:22.231Z,38.79
2018-08-17T10:36:22.243Z,40.47
2018-08-17T10:37:22.256Z,39.29
2018-08-17T10:38:22.268Z,38.90
2018-08-17T10:39:22.283Z,41.42
2018-08-17T10:40:22.292Z,40.89
2018-08-17T10:41:22.304Z,41.17
2018-08-17T10:42:22.317Z,42.71
2018-08-17T10:43:22.330Z,44.46
2018-08-17T10:44:22.339Z,45.12
2018-08-17T10:45:22.351Z,42.79
2018-08-17T10:46:22.362Z,43.35
2018-08-17T10:47:22.371Z,44.20
2018-08-17T10:48:22.388Z,44.79
2018-08-17T10:49:22.427Z,44.86
2018-08-17T10:50:22.435Z,44.57
2018-08-17T10:51:22.413Z,45.84
2018-08-17T10:52:22.422Z,45.72
2018-08-17T10:53:22.433Z,46.01
2018-08-17T10:54:22.442Z,46.98
2018-08-17T10:55:22.457Z,47.08
2018-08-17T10:56:22.459Z,46.96
2018-08-17T10:57:22.509Z,47.05
2018-08-17T10:58:22.478Z,46.77
2018-08-17T10:59:22.485Z,46.77
2018-08-17T11:00:22.493Z,46.88
2018-08-17T11:01:22.503Z,46.13
2018-08-17T11:02:22.513Z,45.86
2018-08-17T11:03:22.546Z,45.86
2018-08-17T11:04:22.614Z,43.05
2018-08-17T11:05:22.538Z,43.27
2018-08-17T11:06:22.548Z,43.18
2018-08-17T11:07:22.557Z,42.61
2018-08-17T11:08:22.677Z,44.38
2018-08-17T11:09:22.577Z,43.32
2018-08-17T11:10:22.590Z,44.51
2018-08-17T11:11:22.597Z,46.34
2018-08-17T11:12:22.608Z,43.90
2018-08-17T11:13:22.646Z,41.25
2018-08-17T11:14:22.661Z,41.93
2018-08-17T11:15:22.640Z,44.54
2018-08-17T11:16:22.664Z,43.37
2018-08-17T11:17:22.663Z,46.88
2018-08-17T11:18:22.688Z,45.98
2018-08-17T11:19:22.681Z,46.27
2018-08-17T11:20:22.690Z,44.30
2018-08-17T11:21:22.701Z,45.47
2018-08-17T11:22:22.711Z,44.48
2018-08-17T11:23:22.719Z,45.35
2018-08-17T11:24:22.999Z,44.69
2018-08-17T11:25:22.737Z,47.42
2018-08-17T11:26:22.749Z,48.02
2018-08-17T11:27:22.756Z,49.22
2018-08-17T11:28:22.769Z,49.12
2018-08-17T11:29:22.775Z,45.64
2018-08-17T11:30:22.785Z,43.10
2018-08-17T11:31:22.795Z,40.58
2018-08-17T11:32:22.806Z,43.71
2018-08-17T11:33:22.816Z,45.46
2018-08-17T11:34:22.933Z,40.89
2018-08-17T11:35:22.840Z,40.63
2018-08-17T11:36:22.847Z,41.41
2018-08-17T11:37:22.859Z,39.86
2018-08-17T11:38:23.052Z,40.74
2018-08-17T11:39:22.880Z,40.84
2018-08-17T11:40:22.891Z,41.74
2018-08-17T11:41:22.924Z,38.61
2018-08-17T11:42:22.914Z,38.90
2018-08-17T11:43:22.927Z,41.54
2018-08-17T11:44:22.938Z,40.17
2018-08-17T11:45:22.949Z,39.20
2018-08-17T11:46:22.962Z,39.29
2018-08-17T11:47:22.972Z,38.22
2018-08-17T11:48:22.987Z,38.69
2018-08-17T11:49:22.998Z,38.20
2018-08-17T11:50:23.011Z,39.67
2018-08-17T11:51:23.021Z,38.40
2018-08-17T11:52:23.035Z,41.91
2018-08-17T11:53:23.069Z,41.91
2018-08-17T11:54:23.058Z,41.02
2018-08-17T11:55:23.068Z,38.26
2018-08-17T11:56:23.081Z,37.75
2018-08-17T11:57:23.093Z,38.51
2018-08-17T11:58:23.104Z,40.06
2018-08-17T11:59:23.114Z,40.91
2018-08-17T12:00:23.127Z,40.52
2018-08-17T12:01:23.138Z,41.40
2018-08-17T12:02:23.148Z,40.52
2018-08-17T12:03:23.156Z,39.75
2018-08-17T12:04:23.165Z,40.99
2018-08-17T12:05:23.175Z,42.06
2018-08-17T12:06:23.210Z,42.76
2018-08-17T12:07:23.196Z,41.60
2018-08-17T12:08:23.371Z,41.89
2018-08-17T12:09:23.250Z,42.10
2018-08-17T12:10:23.225Z,42.79
2018-08-17T12:11:23.236Z,41.32
2018-08-17T12:12:23.246Z,40.45
2018-08-17T12:13:23.259Z,41.13
2018-08-17T12:14:23.264Z,41.91
2018-08-17T12:15:23.276Z,41.01
2018-08-17T12:16:23.284Z,41.77
2018-08-17T12:17:23.294Z,41.48
2018-08-17T12:18:23.305Z,43.62
2018-08-17T12:19:23.312Z,45.39
2018-08-17T12:20:23.322Z,45.10
2018-08-17T12:21:23.562Z,45.29
2018-08-17T12:22:23.341Z,46.95
2018-08-17T12:23:23.349Z,46.37
2018-08-17T12:24:23.512Z,44.20
2018-08-17T12:25:23.369Z,43.52
2018-08-17T12:26:23.378Z,46.34
2018-08-17T12:27:23.385Z,45.08
2018-08-17T12:28:23.394Z,44.59
2018-08-17T12:29:23.646Z,45.76
2018-08-17T12:30:23.413Z,47.90
2018-08-17T12:31:23.423Z,45.57
2018-08-17T12:32:23.432Z,45.74
2018-08-17T12:33:23.587Z,45.25
2018-08-17T12:34:23.446Z,47.69
2018-08-17T12:35:23.459Z,46.61
2018-08-17T12:36:23.461Z,47.20
2018-08-17T12:37:23.469Z,46.59
2018-08-17T12:38:23.480Z,46.01
2018-08-17T12:39:23.485Z,47.27
2018-08-17T12:40:23.493Z,46.98
2018-08-17T12:41:23.501Z,46.69
2018-08-17T12:42:23.509Z,49.80
2018-08-17T12:43:23.516Z,48.05
2018-08-17T12:44:23.527Z,48.25
2018-08-17T12:45:23.535Z,48.25
2018-08-17T12:46:23.592Z,49.32
2018-08-17T12:47:23.688Z,50.38
2018-08-17T12:48:23.903Z,50.38
2018-08-17T12:49:24.357Z,53.50
2018-08-17T12:50:23.572Z,49.02
2018-08-17T12:51:23.579Z,50.29
2018-08-17T12:52:23.718Z,48.83
2018-08-17T12:53:23.780Z,52.23